KRVS/RVS METAR and TAF weather

Enter ICAO airport designator
Station Type Date Time Source
KRVS METAR 2019/04/22 23:53 UTC NOAA

KRVS 222353Z 00000KT 10SM SCT035 OVC045 22/18 A3001 RMK AO2 SLP167 T02220178 10239 20211 51002


Station Type Date Time Source
KRVS Decoded METAR 2019/04/22 23:53 UTC NOAA

TULSA JONES JR. AIRPORT, OK, United States (KRVS) 36-03N 095-59W 200M
Apr 22, 2019 - 07:53 PM EDT / 2019.04.22 2353 UTC
Wind: Calm:0
Visibility: 10 mile(s):0
Sky conditions: overcast
Temperature: 72.0 F (22.2 C)
Dew Point: 64.0 F (17.8 C)
Relative Humidity: 76%
Pressure (altimeter): 30.01 in. Hg (1016 hPa)
Pressure tendency: 0.01 inches (0.2 hPa) higher than three hours ago
ob: KRVS 222353Z 00000KT 10SM SCT035 OVC045 22/18 A3001 RMK AO2 SLP167 T02220178 10239 20211 51002
cycle: 0

Station Type Date Time Source
KRVS TAF 2019/04/22 18:22 UTC NOAA

TAF KRVS 221720Z 2218/2318 20009KT P6SM OVC025
FM222100 20010KT P6SM BKN035 PROB30 2304/2310 5SM -TSRA BR BKN025CB
FM231000 01006KT P6SM BKN025
TEMPO 2310/2314 4SM TSRA OVC015CB
FM231400 01005KT 5SM -RA BKN025

Example: see airport list